createdAt,value
2022-12-11T00:00:53.702Z,0.80
2022-12-11T00:03:46.968Z,0.80
2022-12-11T00:06:23.000Z,0.80
2022-12-11T00:08:57.836Z,0.80
2022-12-11T00:11:30.816Z,0.80
2022-12-11T00:14:03.764Z,0.80
2022-12-11T00:16:36.874Z,0.76
2022-12-11T00:19:10.246Z,0.72
2022-12-11T00:21:43.082Z,0.70
2022-12-11T00:24:16.004Z,0.70
2022-12-11T00:26:48.843Z,0.80
2022-12-11T00:29:21.703Z,0.80
2022-12-11T00:31:54.535Z,0.80
2022-12-11T00:34:27.709Z,0.80
2022-12-11T00:37:00.894Z,0.80
2022-12-11T00:39:33.770Z,0.80
2022-12-11T00:42:06.813Z,0.80
2022-12-11T00:44:40.154Z,0.80
2022-12-11T00:47:13.978Z,0.74
2022-12-11T00:49:49.961Z,0.74
2022-12-11T00:52:23.059Z,0.76
2022-12-11T00:54:55.956Z,0.70
2022-12-11T00:57:28.861Z,0.70
2022-12-11T01:00:01.782Z,0.74
2022-12-11T01:02:34.829Z,0.80
2022-12-11T01:05:09.384Z,0.80
2022-12-11T01:07:42.438Z,0.80
2022-12-11T01:10:25.785Z,0.76
2022-12-11T01:13:01.093Z,0.80
2022-12-11T01:15:41.117Z,0.70
2022-12-11T01:18:16.091Z,0.72
2022-12-11T01:20:49.073Z,0.70
2022-12-11T01:23:21.933Z,0.72
2022-12-11T01:25:54.715Z,0.70
2022-12-11T01:28:27.598Z,0.70
2022-12-11T01:31:00.549Z,0.70
2022-12-11T01:33:33.660Z,0.70
2022-12-11T01:36:10.832Z,0.70
2022-12-11T01:38:43.816Z,0.70
2022-12-11T01:41:16.761Z,0.70
2022-12-11T01:44:05.892Z,0.70
2022-12-11T01:46:39.988Z,0.70
2022-12-11T01:49:16.578Z,0.68
2022-12-11T01:51:54.554Z,0.62
2022-12-11T01:54:29.754Z,0.60
2022-12-11T01:57:06.985Z,0.60
2022-12-11T01:59:44.401Z,0.64
2022-12-11T02:02:22.996Z,0.62
2022-12-11T02:04:55.963Z,0.60
2022-12-11T02:07:29.012Z,0.60
2022-12-11T02:10:01.900Z,0.60
2022-12-11T02:12:44.980Z,0.60
2022-12-11T02:15:26.745Z,0.58
2022-12-11T02:18:11.296Z,0.60
2022-12-11T02:20:50.870Z,0.58
2022-12-11T02:24:01.682Z,0.54
2022-12-11T02:26:56.187Z,0.50
2022-12-11T02:29:36.912Z,0.50
2022-12-11T02:32:16.333Z,0.50
2022-12-11T02:34:54.659Z,0.42
2022-12-11T02:37:32.462Z,0.40
2022-12-11T02:40:08.929Z,0.42
2022-12-11T02:42:44.852Z,0.50
2022-12-11T02:45:20.621Z,0.50
2022-12-11T02:47:54.139Z,0.50
2022-12-11T02:50:28.617Z,0.50
2022-12-11T02:53:04.384Z,0.50
2022-12-11T02:55:40.178Z,0.44
2022-12-11T02:58:17.553Z,0.42
2022-12-11T03:00:51.233Z,0.40
2022-12-11T03:03:24.932Z,0.40
2022-12-11T03:05:58.409Z,0.40
2022-12-11T03:08:31.234Z,0.40
2022-12-11T03:11:04.194Z,0.40
2022-12-11T03:13:37.163Z,0.40
2022-12-11T03:16:17.686Z,0.40
2022-12-11T03:19:00.563Z,0.40
2022-12-11T03:21:41.372Z,0.40
2022-12-11T03:24:21.713Z,0.40
2022-12-11T03:27:04.511Z,0.30
2022-12-11T03:29:48.149Z,0.30
2022-12-11T03:32:24.683Z,0.30
2022-12-11T03:35:02.800Z,0.30
2022-12-11T03:37:40.505Z,0.30
2022-12-11T03:40:19.014Z,0.30
2022-12-11T03:42:55.994Z,0.28
2022-12-11T03:45:31.082Z,0.26
2022-12-11T03:48:04.914Z,0.20
2022-12-11T03:50:38.757Z,0.20
2022-12-11T03:53:11.958Z,0.20
2022-12-11T03:55:45.050Z,0.20
2022-12-11T03:58:18.080Z,0.20
2022-12-11T04:00:51.331Z,0.18
2022-12-11T04:03:24.274Z,0.14
2022-12-11T04:05:59.060Z,0.16
2022-12-11T04:08:31.945Z,0.16
2022-12-11T04:11:23.224Z,0.20
2022-12-11T04:14:09.833Z,0.14
2022-12-11T04:16:42.827Z,0.14
2022-12-11T04:19:33.675Z,0.10
2022-12-11T04:22:20.541Z,0.10
2022-12-11T04:24:53.486Z,0.18
2022-12-11T04:27:43.810Z,0.20
2022-12-11T04:30:21.763Z,0.20
2022-12-11T04:32:56.100Z,0.14
2022-12-11T04:35:28.971Z,0.18
2022-12-11T04:38:02.354Z,0.14
2022-12-11T04:40:35.250Z,0.14
2022-12-11T04:43:08.187Z,0.14
2022-12-11T04:45:41.071Z,0.12
2022-12-11T04:48:13.914Z,0.10
2022-12-11T04:50:47.596Z,0.10
2022-12-11T04:53:20.542Z,0.10
2022-12-11T04:55:53.641Z,0.10
2022-12-11T04:58:27.206Z,0.10
2022-12-11T05:01:00.021Z,0.10
2022-12-11T05:03:32.825Z,0.10
2022-12-11T05:06:06.132Z,0.10
2022-12-11T05:08:41.508Z,0.10
2022-12-11T05:11:16.739Z,0.10
2022-12-11T05:13:49.776Z,0.10
2022-12-11T05:16:22.590Z,0.02
2022-12-11T05:18:55.606Z,0.00
2022-12-11T05:21:34.652Z,0.04
2022-12-11T05:24:09.944Z,0.02
2022-12-11T05:26:42.741Z,0.00
2022-12-11T05:29:15.580Z,0.00
2022-12-11T05:31:48.426Z,0.00
2022-12-11T05:34:21.342Z,0.00
2022-12-11T05:36:54.141Z,0.00
2022-12-11T05:39:27.002Z,0.00
2022-12-11T05:41:59.904Z,0.00
2022-12-11T05:44:32.776Z,0.00
2022-12-11T05:47:05.654Z,0.00
2022-12-11T05:49:38.811Z,0.00
2022-12-11T05:52:11.769Z,-0.06
2022-12-11T05:54:45.089Z,-0.10
2022-12-11T05:57:17.912Z,-0.10
2022-12-11T05:59:50.806Z,-0.10
2022-12-11T06:02:23.799Z,-0.10
2022-12-11T06:04:56.974Z,-0.10
2022-12-11T06:07:29.846Z,-0.10
2022-12-11T06:10:02.710Z,-0.10
2022-12-11T06:12:35.536Z,-0.10
2022-12-11T06:15:09.924Z,-0.10
2022-12-11T06:17:42.840Z,-0.10
2022-12-11T06:20:16.321Z,-0.10
2022-12-11T06:22:49.316Z,-0.10
2022-12-11T06:25:22.262Z,-0.10
2022-12-11T06:27:55.367Z,-0.10
2022-12-11T06:30:38.898Z,-0.10
2022-12-11T06:33:12.331Z,-0.10
2022-12-11T06:35:45.267Z,-0.10
2022-12-11T06:38:18.177Z,-0.10
2022-12-11T06:40:58.083Z,-0.10
2022-12-11T06:43:30.933Z,-0.10
2022-12-11T06:46:06.794Z,-0.10
2022-12-11T06:48:40.378Z,-0.10
2022-12-11T06:51:15.805Z,-0.10
2022-12-11T06:53:52.068Z,-0.10
2022-12-11T06:56:25.692Z,-0.10
2022-12-11T06:59:02.846Z,-0.10
2022-12-11T07:01:38.601Z,-0.10
2022-12-11T07:04:12.193Z,-0.10
2022-12-11T07:06:45.003Z,-0.10
2022-12-11T07:09:17.856Z,-0.10
2022-12-11T07:11:52.516Z,-0.10
2022-12-11T07:14:25.538Z,-0.10
2022-12-11T07:16:58.396Z,-0.10
2022-12-11T07:19:31.615Z,-0.10
2022-12-11T07:22:04.490Z,-0.10
2022-12-11T07:24:37.388Z,-0.10
2022-12-11T07:27:10.379Z,-0.10
2022-12-11T07:29:43.372Z,-0.10
2022-12-11T07:32:16.456Z,-0.10
2022-12-11T07:34:51.986Z,-0.10
2022-12-11T07:37:25.317Z,-0.10
2022-12-11T07:39:58.124Z,-0.10
2022-12-11T07:42:31.192Z,-0.10
2022-12-11T07:45:04.237Z,-0.10
2022-12-11T07:47:37.718Z,-0.10
2022-12-11T07:50:11.753Z,-0.10
2022-12-11T07:52:44.722Z,-0.10
2022-12-11T07:55:17.674Z,-0.10
2022-12-11T07:57:50.599Z,-0.10
2022-12-11T08:00:24.154Z,-0.10
2022-12-11T08:02:56.936Z,-0.10
2022-12-11T08:05:29.828Z,-0.10
2022-12-11T08:08:02.777Z,-0.10
2022-12-11T08:10:35.653Z,-0.10
2022-12-11T08:13:08.449Z,-0.08
2022-12-11T08:15:41.921Z,0.00
2022-12-11T08:18:14.758Z,0.00
2022-12-11T08:20:47.656Z,0.00
2022-12-11T08:23:20.494Z,0.00
2022-12-11T08:25:53.325Z,0.00
2022-12-11T08:28:27.356Z,-0.04
2022-12-11T08:31:01.052Z,0.00
2022-12-11T08:33:33.898Z,0.00
2022-12-11T08:36:11.194Z,0.00
2022-12-11T08:38:44.431Z,0.00
2022-12-11T08:41:20.543Z,-0.02
2022-12-11T08:43:55.432Z,-0.02
2022-12-11T08:46:30.846Z,0.00
2022-12-11T08:49:03.751Z,0.00
2022-12-11T08:51:36.799Z,-0.08
2022-12-11T08:54:11.012Z,-0.10
2022-12-11T08:56:43.837Z,-0.06
2022-12-11T08:59:18.652Z,0.00
2022-12-11T09:01:51.592Z,0.00
2022-12-11T09:04:24.760Z,-0.06
2022-12-11T09:06:57.667Z,-0.10
2022-12-11T09:09:30.503Z,-0.10
2022-12-11T09:12:04.874Z,-0.10
2022-12-11T09:14:37.706Z,-0.10
2022-12-11T09:17:10.680Z,-0.10
2022-12-11T09:19:43.624Z,-0.10
2022-12-11T09:22:17.204Z,-0.10
2022-12-11T09:24:50.166Z,-0.10
2022-12-11T09:27:23.985Z,-0.10
2022-12-11T09:29:56.808Z,-0.10
2022-12-11T09:32:30.603Z,-0.10
2022-12-11T09:35:03.457Z,-0.20
2022-12-11T09:37:37.661Z,-0.20
2022-12-11T09:40:14.109Z,-0.18
2022-12-11T09:42:55.697Z,-0.12
2022-12-11T09:45:29.016Z,-0.10
2022-12-11T09:48:03.725Z,-0.10
2022-12-11T09:50:37.234Z,-0.10
2022-12-11T09:53:19.884Z,-0.10
2022-12-11T09:56:02.539Z,-0.10
2022-12-11T09:58:48.618Z,-0.10
2022-12-11T10:01:28.281Z,-0.16
2022-12-11T10:04:20.391Z,-0.10
2022-12-11T10:06:59.835Z,-0.10
2022-12-11T10:09:41.462Z,-0.10
2022-12-11T10:12:28.501Z,-0.10
2022-12-11T10:15:20.257Z,-0.10
2022-12-11T10:17:58.633Z,-0.10
2022-12-11T10:20:39.592Z,-0.10
2022-12-11T10:23:23.963Z,-0.10
2022-12-11T10:26:05.147Z,-0.10
2022-12-11T10:28:38.748Z,-0.10
2022-12-11T10:31:21.492Z,-0.10
2022-12-11T10:34:03.357Z,-0.10
2022-12-11T10:36:40.699Z,-0.10
2022-12-11T10:39:19.012Z,-0.10
2022-12-11T10:41:53.494Z,0.00
2022-12-11T10:44:29.695Z,0.00
2022-12-11T10:47:11.700Z,0.00
2022-12-11T10:49:59.198Z,0.00
2022-12-11T10:52:37.571Z,0.00
2022-12-11T10:55:22.610Z,0.00
2022-12-11T10:58:05.070Z,0.00
2022-12-11T11:00:42.400Z,0.00
2022-12-11T11:03:27.869Z,-0.04
2022-12-11T11:06:16.532Z,-0.10
2022-12-11T11:08:51.953Z,-0.10
2022-12-11T11:11:34.259Z,-0.10
2022-12-11T11:14:17.882Z,-0.14
2022-12-11T11:16:52.657Z,-0.16
2022-12-11T11:19:33.810Z,-0.20
2022-12-11T11:22:11.530Z,-0.10
2022-12-11T11:24:47.692Z,-0.10
2022-12-11T11:27:32.550Z,-0.10
2022-12-11T11:30:18.669Z,-0.14
2022-12-11T11:32:55.284Z,-0.20
2022-12-11T11:35:30.137Z,-0.20
2022-12-11T11:38:18.675Z,-0.20
2022-12-11T11:41:04.981Z,-0.20
2022-12-11T11:43:47.726Z,-0.20
2022-12-11T11:46:26.964Z,-0.20
2022-12-11T11:49:10.175Z,-0.30
2022-12-11T11:51:48.953Z,-0.30
2022-12-11T11:54:32.863Z,-0.30
2022-12-11T11:57:15.494Z,-0.32
2022-12-11T11:59:55.533Z,-0.38
2022-12-11T12:02:28.924Z,-0.40
2022-12-11T12:05:01.831Z,-0.40
2022-12-11T12:07:44.029Z,-0.40
2022-12-11T12:10:23.625Z,-0.40
2022-12-11T12:13:23.949Z,-0.40
2022-12-11T12:16:03.008Z,-0.40
2022-12-11T12:18:47.366Z,-0.40
2022-12-11T12:21:32.325Z,-0.40
2022-12-11T12:24:24.276Z,-0.40
2022-12-11T12:27:02.490Z,-0.40
2022-12-11T12:29:49.027Z,-0.40
2022-12-11T12:32:29.293Z,-0.40
2022-12-11T12:35:17.780Z,-0.40
2022-12-11T12:38:04.130Z,-0.42
2022-12-11T12:40:47.416Z,-0.50
2022-12-11T12:43:49.628Z,-0.50
2022-12-11T12:46:32.292Z,-0.50
2022-12-11T12:49:06.826Z,-0.50
2022-12-11T12:51:40.197Z,-0.50
2022-12-11T12:54:17.042Z,-0.50
2022-12-11T12:56:50.902Z,-0.50
2022-12-11T12:59:29.141Z,-0.50
2022-12-11T13:02:04.555Z,-0.50
2022-12-11T13:04:59.445Z,-0.50
2022-12-11T13:07:35.327Z,-0.50
2022-12-11T13:10:24.380Z,-0.50
2022-12-11T13:12:57.873Z,-0.50
2022-12-11T13:15:39.299Z,-0.50
2022-12-11T13:18:36.629Z,-0.50
2022-12-11T13:21:34.822Z,-0.50
2022-12-11T13:24:29.331Z,-0.52
2022-12-11T13:27:24.195Z,-0.54
2022-12-11T13:30:22.568Z,-0.56
2022-12-11T13:33:04.501Z,-0.60
2022-12-11T13:35:38.438Z,-0.60
2022-12-11T13:38:20.778Z,-0.60
2022-12-11T13:40:57.814Z,-0.60
2022-12-11T13:43:34.529Z,-0.60
2022-12-11T13:46:10.869Z,-0.70
2022-12-11T13:48:52.011Z,-0.70
2022-12-11T13:51:27.294Z,-0.70
2022-12-11T13:54:20.104Z,-0.70
2022-12-11T13:57:03.482Z,-0.70
2022-12-11T13:59:42.433Z,-0.70
2022-12-11T14:02:22.801Z,-0.70
2022-12-11T14:04:56.915Z,-0.70
2022-12-11T14:07:33.303Z,-0.70
2022-12-11T14:10:11.095Z,-0.70
2022-12-11T14:12:47.440Z,-0.70
2022-12-11T14:15:21.660Z,-0.70
2022-12-11T14:17:55.689Z,-0.70
2022-12-11T14:20:33.341Z,-0.70
2022-12-11T14:23:18.343Z,-0.70
2022-12-11T14:26:00.679Z,-0.70
2022-12-11T14:28:40.355Z,-0.70
2022-12-11T14:31:17.707Z,-0.70
2022-12-11T14:33:54.605Z,-0.70
2022-12-11T14:36:27.829Z,-0.70
2022-12-11T14:39:06.170Z,-0.70
2022-12-11T14:41:48.721Z,-0.70
2022-12-11T14:44:24.937Z,-0.70
2022-12-11T14:47:00.077Z,-0.74
2022-12-11T14:49:40.529Z,-0.80
2022-12-11T14:52:17.303Z,-0.80
2022-12-11T14:54:54.528Z,-0.80
2022-12-11T14:57:30.455Z,-0.90
2022-12-11T15:00:04.415Z,-0.90
2022-12-11T15:02:39.708Z,-0.90
2022-12-11T15:05:23.059Z,-0.94
2022-12-11T15:08:05.030Z,-1.00
2022-12-11T15:10:43.358Z,-1.00
2022-12-11T15:13:23.914Z,-1.00
2022-12-11T15:15:56.090Z,-1.00
2022-12-11T15:18:31.514Z,-1.00
2022-12-11T15:21:09.643Z,-1.00
2022-12-11T15:23:54.149Z,-1.00
2022-12-11T15:26:40.578Z,-1.00
2022-12-11T15:29:34.339Z,-1.02
2022-12-11T15:32:19.960Z,-1.10
2022-12-11T15:34:55.102Z,-1.10
2022-12-11T15:37:29.901Z,-1.10
2022-12-11T15:40:05.901Z,-1.10
2022-12-11T15:42:41.964Z,-1.10
2022-12-11T15:45:22.434Z,-1.10
2022-12-11T15:47:54.121Z,-1.10
2022-12-11T15:50:28.930Z,-1.10
2022-12-11T15:53:01.902Z,-1.10
2022-12-11T15:55:35.611Z,-1.10
2022-12-11T15:58:15.247Z,-1.14
2022-12-11T16:00:48.577Z,-1.14
2022-12-11T16:03:24.628Z,-1.20
2022-12-11T16:05:57.623Z,-1.20
2022-12-11T16:08:30.569Z,-1.20
2022-12-11T16:11:03.709Z,-1.20
2022-12-11T16:13:36.607Z,-1.20
2022-12-11T16:16:10.384Z,-1.20
2022-12-11T16:18:43.629Z,-1.20
2022-12-11T16:21:21.210Z,-1.20
2022-12-11T16:23:54.688Z,-1.20
2022-12-11T16:26:28.042Z,-1.20
2022-12-11T16:29:00.888Z,-1.20
2022-12-11T16:31:33.848Z,-1.20
2022-12-11T16:34:06.794Z,-1.20
2022-12-11T16:36:39.783Z,-1.18
2022-12-11T16:39:15.363Z,-1.10
2022-12-11T16:41:48.389Z,-1.10
2022-12-11T16:44:24.618Z,-1.10
2022-12-11T16:46:58.276Z,-1.10
2022-12-11T16:49:32.159Z,-1.10
2022-12-11T16:52:06.390Z,-1.12
2022-12-11T16:54:39.388Z,-1.16
2022-12-11T16:57:12.473Z,-1.10
2022-12-11T16:59:45.396Z,-1.10
2022-12-11T17:02:18.560Z,-1.16
2022-12-11T17:04:54.034Z,-1.16
2022-12-11T17:07:27.466Z,-1.20
2022-12-11T17:10:02.025Z,-1.20
2022-12-11T17:12:35.322Z,-1.20
2022-12-11T17:15:10.455Z,-1.20
2022-12-11T17:17:43.517Z,-1.16
2022-12-11T17:20:18.330Z,-1.10
2022-12-11T17:22:51.299Z,-1.14
2022-12-11T17:25:24.226Z,-1.14
2022-12-11T17:27:58.179Z,-1.10
2022-12-11T17:30:31.171Z,-1.10
2022-12-11T17:33:04.775Z,-1.10
2022-12-11T17:35:37.918Z,-1.10
2022-12-11T17:38:10.908Z,-1.10
2022-12-11T17:40:46.134Z,-1.10
2022-12-11T17:43:19.327Z,-1.10
2022-12-11T17:45:55.350Z,-1.10
2022-12-11T17:48:28.421Z,-1.10
2022-12-11T17:51:04.428Z,-1.10
2022-12-11T17:53:37.827Z,-1.10
2022-12-11T17:56:12.623Z,-1.10
2022-12-11T17:58:45.702Z,-1.10
2022-12-11T18:01:18.904Z,-1.10
2022-12-11T18:03:52.070Z,-1.10
2022-12-11T18:06:25.233Z,-1.10
2022-12-11T18:08:58.262Z,-1.10
2022-12-11T18:11:31.487Z,-1.10
2022-12-11T18:14:04.475Z,-1.10
2022-12-11T18:16:39.637Z,-1.12
2022-12-11T18:19:12.508Z,-1.12
2022-12-11T18:21:47.595Z,-1.14
2022-12-11T18:24:20.761Z,-1.14
2022-12-11T18:26:53.866Z,-1.10
2022-12-11T18:29:26.875Z,-1.12
2022-12-11T18:32:00.172Z,-1.12
2022-12-11T18:34:33.222Z,-1.10
2022-12-11T18:37:06.132Z,-1.12
2022-12-11T18:39:39.041Z,-1.10
2022-12-11T18:42:32.143Z,-1.10
2022-12-11T18:45:05.098Z,-1.14
2022-12-11T18:47:38.631Z,-1.12
2022-12-11T18:50:12.006Z,-1.10
2022-12-11T18:52:44.838Z,-1.12
2022-12-11T18:55:17.640Z,-1.12
2022-12-11T18:57:50.427Z,-1.10
2022-12-11T19:00:24.168Z,-1.10
2022-12-11T19:02:57.227Z,-1.20
2022-12-11T19:05:30.208Z,-1.12
2022-12-11T19:08:03.365Z,-1.12
2022-12-11T19:10:41.442Z,-1.10
2022-12-11T19:13:15.254Z,-1.10
2022-12-11T19:15:48.606Z,-1.10
2022-12-11T19:18:21.471Z,-1.14
2022-12-11T19:21:03.153Z,-1.20
2022-12-11T19:23:41.340Z,-1.20
2022-12-11T19:26:18.571Z,-1.20
2022-12-11T19:28:52.885Z,-1.20
2022-12-11T19:31:27.591Z,-1.20
2022-12-11T19:34:01.397Z,-1.20
2022-12-11T19:36:35.235Z,-1.20
2022-12-11T19:39:13.050Z,-1.20
2022-12-11T19:41:46.954Z,-1.20
2022-12-11T19:44:19.891Z,-1.22
2022-12-11T19:46:53.197Z,-1.22
2022-12-11T19:49:26.158Z,-1.22
2022-12-11T19:51:59.031Z,-1.20
2022-12-11T19:54:32.541Z,-1.20
2022-12-11T19:57:05.510Z,-1.20
2022-12-11T19:59:38.348Z,-1.22
2022-12-11T20:02:13.087Z,-1.22
2022-12-11T20:04:46.003Z,-1.20
2022-12-11T20:07:19.201Z,-1.22
2022-12-11T20:09:52.121Z,-1.22
2022-12-11T20:12:25.054Z,-1.20
2022-12-11T20:14:58.004Z,-1.20
2022-12-11T20:17:31.554Z,-1.20
2022-12-11T20:20:05.175Z,-1.20
2022-12-11T20:22:38.183Z,-1.20
2022-12-11T20:25:12.302Z,-1.20
2022-12-11T20:27:45.499Z,-1.20
2022-12-11T20:30:19.556Z,-1.20
2022-12-11T20:32:52.467Z,-1.20
2022-12-11T20:35:26.560Z,-1.20
2022-12-11T20:37:59.361Z,-1.20
2022-12-11T20:40:32.346Z,-1.20
2022-12-11T20:43:05.806Z,-1.20
2022-12-11T20:45:38.805Z,-1.20
2022-12-11T20:48:12.284Z,-1.20
2022-12-11T20:50:45.171Z,-1.20
2022-12-11T20:53:17.982Z,-1.20
2022-12-11T20:55:50.902Z,-1.20
2022-12-11T20:58:24.166Z,-1.20
2022-12-11T21:00:58.742Z,-1.14
2022-12-11T21:03:34.522Z,-1.12
2022-12-11T21:06:18.163Z,-1.14
2022-12-11T21:08:51.072Z,-1.10
2022-12-11T21:11:24.810Z,-1.10
2022-12-11T21:13:58.275Z,-1.10
2022-12-11T21:16:31.271Z,-1.10
2022-12-11T21:19:04.225Z,-1.12
2022-12-11T21:21:39.983Z,-1.10
2022-12-11T21:24:18.816Z,-1.10
2022-12-11T21:26:52.215Z,-1.12
2022-12-11T21:29:27.719Z,-1.20
2022-12-11T21:32:01.269Z,-1.18
2022-12-11T21:34:34.136Z,-1.20
2022-12-11T21:37:07.043Z,-1.20
2022-12-11T21:39:40.466Z,-1.20
2022-12-11T21:42:13.512Z,-1.20
2022-12-11T21:47:39.702Z,-1.20
2022-12-11T21:50:12.943Z,-1.20
2022-12-11T21:52:45.875Z,-1.20
2022-12-11T21:55:19.531Z,-1.20
2022-12-11T21:57:52.360Z,-1.22
2022-12-11T22:00:25.967Z,-1.20
2022-12-11T22:02:58.858Z,-1.26
2022-12-11T22:05:31.883Z,-1.28
2022-12-11T22:08:04.783Z,-1.30
2022-12-11T22:10:37.676Z,-1.30
2022-12-11T22:13:10.759Z,-1.30
2022-12-11T22:15:43.794Z,-1.30
2022-12-11T22:18:16.738Z,-1.30
2022-12-11T22:20:50.331Z,-1.30
2022-12-11T22:23:23.880Z,-1.30
2022-12-11T22:25:57.390Z,-1.30
2022-12-11T22:28:30.659Z,-1.30
2022-12-11T22:31:03.948Z,-1.30
2022-12-11T22:33:36.938Z,-1.30
2022-12-11T22:36:11.533Z,-1.30
2022-12-11T22:38:44.766Z,-1.30
2022-12-11T22:41:22.523Z,-1.30
2022-12-11T22:43:56.400Z,-1.30
2022-12-11T22:46:32.458Z,-1.30
2022-12-11T22:49:05.517Z,-1.30
2022-12-11T22:51:39.049Z,-1.30
2022-12-11T22:54:12.262Z,-1.30
2022-12-11T22:56:45.295Z,-1.30
2022-12-11T22:59:18.241Z,-1.30
2022-12-11T23:01:51.218Z,-1.30
2022-12-11T23:04:24.088Z,-1.30
2022-12-11T23:06:56.966Z,-1.30
2022-12-11T23:09:29.869Z,-1.30
2022-12-11T23:12:03.452Z,-1.30
2022-12-11T23:14:36.373Z,-1.24
2022-12-11T23:17:09.244Z,-1.20
2022-12-11T23:19:42.230Z,-1.22
2022-12-11T23:22:15.355Z,-1.22
2022-12-11T23:24:48.364Z,-1.20
2022-12-11T23:27:21.620Z,-1.24
2022-12-11T23:29:55.310Z,-1.24
2022-12-11T23:32:28.250Z,-1.26
2022-12-11T23:35:01.570Z,-1.28
2022-12-11T23:37:35.311Z,-1.24
2022-12-11T23:40:10.506Z,-1.24
2022-12-11T23:42:43.362Z,-1.26
2022-12-11T23:45:16.313Z,-1.30
2022-12-11T23:47:49.211Z,-1.26
2022-12-11T23:50:22.353Z,-1.20
2022-12-11T23:52:55.306Z,-1.24
2022-12-11T23:55:28.850Z,-1.20
2022-12-11T23:58:01.898Z,-1.20
